Time;durP1;ratioP1;P1;durP2;ratioP2;P2;SDS_P1;SDS_P2;PMS_P1;PMS_P2;Temp;Humidity;BMP_temperature;BMP_pressure;BME280_temperature;BME280_humidity;BME280_pressure;Samples;Min_cycle;Max_cycle;Signal;HPM_P1;HPM_P2
2021/07/03 00:02:00;;;;;;;10.57;1.60;;;;;;;26.52;47.97;100286.88;5049831;28;20128;-68
2021/07/03 00:04:29;;;;;;;12.95;1.83;;;;;;;26.50;48.53;100285.22;5048837;28;20033;-69
2021/07/03 00:06:56;;;;;;;9.75;1.77;;;;;;;26.42;49.07;100287.50;5052964;28;20064;-68
2021/07/03 00:09:24;;;;;;;21.10;2.08;;;;;;;26.27;49.31;100277.53;5053272;28;20511;-69
2021/07/03 00:11:51;;;;;;;8.88;1.90;;;;;;;26.27;49.74;100285.66;5053997;28;20056;-68
2021/07/03 00:14:19;;;;;;;7.82;1.98;;;;;;;26.26;49.64;100275.78;5054000;28;20033;-68
2021/07/03 00:16:47;;;;;;;8.30;2.00;;;;;;;26.31;49.73;100280.00;5053881;28;20561;-69
2021/07/03 00:19:16;;;;;;;8.13;1.92;;;;;;;26.26;50.25;100290.19;5053940;28;20494;-68
2021/07/03 00:21:43;;;;;;;8.20;2.00;;;;;;;26.01;50.44;100297.91;5053550;28;20029;-68
2021/07/03 00:24:11;;;;;;;9.48;2.85;;;;;;;25.87;50.77;100290.56;5053711;28;20128;-68
2021/07/03 00:26:38;;;;;;;8.93;2.53;;;;;;;25.79;51.22;100287.41;5053382;28;20049;-68
2021/07/03 00:29:06;;;;;;;9.95;1.60;;;;;;;25.91;50.72;100277.75;5054321;28;20056;-69
2021/07/03 00:31:33;;;;;;;8.70;1.50;;;;;;;25.97;50.64;100278.28;5053896;28;20133;-68
2021/07/03 00:34:01;;;;;;;7.97;1.90;;;;;;;26.02;50.33;100269.91;5053379;28;20041;-68
2021/07/03 00:36:30;;;;;;;10.85;1.85;;;;;;;26.04;50.64;100265.28;5053271;28;20128;-69
2021/07/03 00:38:57;;;;;;;8.00;1.63;;;;;;;26.01;50.84;100266.31;5053762;28;20052;-67
2021/07/03 00:41:25;;;;;;;13.23;2.28;;;;;;;26.01;50.71;100263.63;5053669;28;20033;-68
2021/07/03 00:43:52;;;;;;;10.13;2.08;;;;;;;25.99;50.85;100261.97;5053910;28;20068;-68
2021/07/03 00:46:20;;;;;;;12.63;2.70;;;;;;;25.89;51.03;100256.19;5053753;28;20029;-68
2021/07/03 00:48:47;;;;;;;7.38;1.63;;;;;;;25.82;51.18;100260.19;5052895;28;20045;-69
2021/07/03 00:51:16;;;;;;;8.73;1.77;;;;;;;25.78;51.16;100269.44;5053997;28;20506;-68
2021/07/03 00:53:45;;;;;;;9.43;1.90;;;;;;;25.76;50.88;100266.81;5053459;28;20041;-68
2021/07/03 00:56:13;;;;;;;11.10;1.60;;;;;;;25.73;50.86;100274.25;5053563;28;20029;-68
2021/07/03 00:58:41;;;;;;;9.95;1.75;;;;;;;25.67;50.68;100272.72;5052015;28;20041;-69
2021/07/03 01:01:08;;;;;;;9.90;1.98;;;;;;;25.66;50.93;100271.00;5052692;28;20075;-69
2021/07/03 01:03:36;;;;;;;9.07;1.60;;;;;;;25.66;51.05;100262.00;5052899;28;20045;-69
2021/07/03 01:06:04;;;;;;;11.25;2.80;;;;;;;25.69;50.82;100270.81;5053676;28;20041;-68
2021/07/03 01:08:31;;;;;;;10.35;1.98;;;;;;;25.60;51.22;100267.75;5052963;28;20423;-68
2021/07/03 01:11:00;;;;;;;9.65;1.80;;;;;;;25.54;51.34;100268.03;5053196;28;20052;-67
2021/07/03 01:13:29;;;;;;;10.63;1.95;;;;;;;25.53;51.63;100259.06;5052312;28;20467;-67
2021/07/03 01:15:57;;;;;;;8.60;2.20;;;;;;;25.48;51.78;100257.53;5053038;28;20041;-67
2021/07/03 01:18:25;;;;;;;7.03;1.63;;;;;;;25.48;51.70;100249.44;5052579;28;20098;-69
2021/07/03 01:20:54;;;;;;;11.13;1.70;;;;;;;25.48;51.91;100257.53;5052785;28;20053;-68
2021/07/03 01:23:26;;;;;;;10.10;1.80;;;;;;;25.46;51.75;100245.97;5052439;28;20045;-68
2021/07/03 01:25:59;;;;;;;9.45;2.30;;;;;;;25.43;51.71;100236.16;5053143;28;20045;-67
2021/07/03 01:28:27;;;;;;;9.57;2.60;;;;;;;25.22;51.88;100243.59;5052351;28;20043;-67
2021/07/03 01:30:55;;;;;;;10.52;2.17;;;;;;;24.75;53.14;100248.72;5052957;28;20123;-68
2021/07/03 01:33:23;;;;;;;11.73;2.33;;;;;;;24.63;53.31;100246.66;5052714;28;20128;-67
2021/07/03 01:35:51;;;;;;;11.50;1.83;;;;;;;24.79;52.95;100246.75;5052272;28;20115;-67
2021/07/03 01:38:20;;;;;;;14.82;1.85;;;;;;;24.97;52.34;100248.53;5052802;28;20542;-67
2021/07/03 01:40:49;;;;;;;10.20;1.83;;;;;;;25.06;51.75;100253.47;5052226;28;20490;-67
2021/07/03 01:43:22;;;;;;;9.70;2.05;;;;;;;25.12;51.81;100247.75;5052355;28;20136;-67
2021/07/03 01:45:50;;;;;;;8.27;1.88;;;;;;;25.14;51.73;100253.09;5052446;28;20067;-68
2021/07/03 01:48:25;;;;;;;8.43;1.70;;;;;;;25.15;51.71;100257.50;5052161;28;20130;-67
2021/07/03 01:50:53;;;;;;;13.80;2.45;;;;;;;25.14;51.57;100261.19;5052481;28;20045;-67
2021/07/03 01:53:20;;;;;;;8.77;1.85;;;;;;;25.11;51.72;100267.63;5052206;28;20055;-67
2021/07/03 01:55:49;;;;;;;7.05;1.30;;;;;;;25.12;51.50;100263.09;5052539;28;20044;-68
2021/07/03 01:58:20;;;;;;;9.25;1.70;;;;;;;25.09;51.21;100264.09;5051834;28;20402;-67
2021/07/03 02:00:48;;;;;;;7.93;1.73;;;;;;;24.99;51.27;100268.25;5052158;28;20037;-67
2021/07/03 02:03:15;;;;;;;9.70;2.00;;;;;;;25.00;51.43;100265.47;5051634;28;20037;-67
2021/07/03 02:05:43;;;;;;;8.30;2.08;;;;;;;25.01;51.12;100272.59;5051781;28;20108;-67
2021/07/03 02:08:11;;;;;;;9.50;1.60;;;;;;;24.90;51.65;100276.81;5052118;28;20048;-68
2021/07/03 02:10:39;;;;;;;8.85;2.42;;;;;;;24.85;51.46;100268.94;5052161;28;20055;-67
2021/07/03 02:13:08;;;;;;;7.22;1.55;;;;;;;24.90;51.10;100274.13;5051169;28;20124;-67
2021/07/03 02:15:36;;;;;;;9.23;1.70;;;;;;;24.99;50.73;100279.06;5052083;28;20037;-67
2021/07/03 02:18:04;;;;;;;7.38;1.70;;;;;;;25.02;50.58;100281.59;5051102;28;20045;-67
2021/07/03 02:20:32;;;;;;;9.63;1.75;;;;;;;25.02;50.74;100284.28;5040150;28;20045;-67
2021/07/03 02:23:00;;;;;;;9.07;2.17;;;;;;;25.02;50.66;100278.88;5051943;28;20055;-66
2021/07/03 02:25:28;;;;;;;10.60;2.25;;;;;;;25.01;51.14;100275.31;5051562;28;20033;-66
2021/07/03 02:27:56;;;;;;;15.65;2.90;;;;;;;25.13;51.96;100275.66;5051715;28;20045;-68
2021/07/03 02:30:25;;;;;;;9.18;2.28;;;;;;;25.31;52.59;100272.84;5050836;28;20033;-68
2021/07/03 02:32:53;;;;;;;10.48;2.15;;;;;;;25.32;52.49;100269.19;5051012;28;20045;-68
2021/07/03 02:35:22;;;;;;;10.68;2.70;;;;;;;25.31;53.12;100266.56;5051530;28;20064;-68
2021/07/03 02:37:50;;;;;;;12.20;3.20;;;;;;;25.34;53.42;100260.97;5051281;28;20094;-69
2021/07/03 02:40:18;;;;;;;16.25;2.92;;;;;;;25.41;54.00;100251.59;5051742;28;20048;-67
2021/07/03 02:42:46;;;;;;;10.90;2.40;;;;;;;25.47;54.43;100261.22;5051248;28;20037;-68
2021/07/03 02:45:16;;;;;;;16.40;2.80;;;;;;;25.54;54.98;100258.09;5051657;28;20037;-67
2021/07/03 02:47:46;;;;;;;10.23;2.40;;;;;;;25.57;54.68;100267.88;5051033;28;20045;-68
2021/07/03 02:50:16;;;;;;;12.82;2.95;;;;;;;25.60;55.03;100263.19;5050659;28;20053;-67
2021/07/03 02:52:43;;;;;;;13.70;2.75;;;;;;;25.59;54.85;100272.28;5051011;28;20051;-68
2021/07/03 02:55:12;;;;;;;13.38;2.78;;;;;;;25.60;54.88;100270.47;5050817;28;20051;-68
2021/07/03 02:57:40;;;;;;;15.40;2.65;;;;;;;25.60;54.89;100265.06;5050792;28;20037;-68
2021/07/03 03:00:10;;;;;;;15.13;2.67;;;;;;;25.60;55.13;100255.06;5050375;28;20039;-67
2021/07/03 03:02:38;;;;;;;15.77;2.80;;;;;;;25.61;55.17;100253.25;5050885;28;20041;-67
2021/07/03 03:05:10;;;;;;;13.57;2.88;;;;;;;25.62;55.28;100255.88;5050573;28;20462;-67
2021/07/03 03:07:38;;;;;;;14.60;2.58;;;;;;;25.61;54.91;100253.25;5050258;28;20045;-67
2021/07/03 03:10:09;;;;;;;10.13;2.30;;;;;;;25.57;54.94;100249.84;5050676;28;20128;-68
2021/07/03 03:12:37;;;;;;;14.02;2.47;;;;;;;25.55;54.49;100256.25;5051098;28;20506;-68
2021/07/03 03:15:05;;;;;;;14.00;2.40;;;;;;;25.51;54.66;100255.56;5050205;28;20070;-68
2021/07/03 03:17:33;;;;;;;9.75;2.22;;;;;;;25.53;54.50;100269.00;5050301;28;20044;-67
2021/07/03 03:20:01;;;;;;;14.10;2.38;;;;;;;25.50;54.45;100270.03;5050663;28;20064;-67
2021/07/03 03:22:31;;;;;;;8.13;2.50;;;;;;;25.53;54.02;100282.53;5050138;28;20037;-67
2021/07/03 03:24:58;;;;;;;12.82;2.00;;;;;;;25.58;53.89;100292.16;5050487;28;20449;-67
2021/07/03 03:27:26;;;;;;;11.13;2.28;;;;;;;25.56;53.92;100303.97;5031237;28;20041;-67
2021/07/03 03:29:53;;;;;;;12.93;2.60;;;;;;;25.54;54.32;100304.03;5032845;28;20049;-68
2021/07/03 03:32:21;;;;;;;11.27;2.28;;;;;;;25.67;53.89;100313.28;5049613;28;20045;-68
2021/07/03 03:34:48;;;;;;;11.48;2.22;;;;;;;25.79;53.38;100328.00;5050576;28;20061;-67
2021/07/03 03:37:15;;;;;;;10.23;2.80;;;;;;;25.85;53.18;100335.78;5049870;28;20036;-67
2021/07/03 03:39:45;;;;;;;12.25;2.85;;;;;;;25.89;53.35;100347.28;5050030;28;20052;-67
2021/07/03 03:42:12;;;;;;;12.45;2.33;;;;;;;25.94;53.74;100339.78;5049257;28;20052;-67
2021/07/03 03:44:39;;;;;;;9.45;2.00;;;;;;;25.92;53.99;100348.00;5050510;28;20043;-67
2021/07/03 03:47:07;;;;;;;11.68;2.13;;;;;;;26.07;53.49;100354.38;5050131;28;20041;-67
2021/07/03 03:49:34;;;;;;;9.02;2.20;;;;;;;26.24;53.12;100350.78;5050053;28;20511;-67
2021/07/03 03:52:03;;;;;;;11.90;2.15;;;;;;;26.43;53.03;100365.06;5049481;28;20048;-66
2021/07/03 03:54:30;;;;;;;14.85;3.08;;;;;;;26.64;53.25;100369.25;5049807;28;20041;-67
2021/07/03 03:59:44;;;;;;;18.15;2.70;;;;;;;26.91;53.07;100383.09;5050152;28;20579;-68
2021/07/03 04:02:13;;;;;;;13.55;2.45;;;;;;;27.02;53.07;100396.00;5050360;28;20491;-67
2021/07/03 04:04:40;;;;;;;17.02;2.65;;;;;;;27.25;53.30;100395.50;5049893;28;20033;-66
2021/07/03 04:07:08;;;;;;;17.02;2.97;;;;;;;27.44;53.62;100420.56;5049035;28;20029;-66
2021/07/03 04:09:35;;;;;;;16.60;2.95;;;;;;;27.66;53.88;100418.34;5049814;28;20063;-67
2021/07/03 04:12:05;;;;;;;21.33;3.42;;;;;;;27.91;54.40;100425.88;5049531;28;20033;-68
2021/07/03 04:14:33;;;;;;;18.88;3.38;;;;;;;28.07;55.23;100421.25;5050267;28;20076;-67
2021/07/03 04:17:00;;;;;;;18.02;3.28;;;;;;;28.23;55.82;100420.31;5050018;28;20498;-68
2021/07/03 04:19:28;;;;;;;21.20;3.63;;;;;;;28.30;56.62;100406.25;5049547;28;20517;-67
2021/07/03 04:21:56;;;;;;;13.07;4.50;;;;;;;28.42;56.89;100408.19;5050074;28;20490;-67
2021/07/03 04:24:24;;;;;;;15.43;3.50;;;;;;;28.51;57.08;100379.56;5049603;28;20405;-67
2021/07/03 04:26:51;;;;;;;16.70;3.15;;;;;;;28.58;57.10;100399.06;5050058;28;20501;-67
2021/07/03 04:29:20;;;;;;;14.15;3.08;;;;;;;28.67;57.11;100403.91;5050007;28;20124;-68
2021/07/03 04:31:48;;;;;;;22.70;3.47;;;;;;;28.77;57.27;100395.06;5049357;28;20418;-67
2021/07/03 04:34:16;;;;;;;18.50;3.85;;;;;;;28.90;57.36;100403.28;5049248;28;20047;-69
2021/07/03 04:36:44;;;;;;;17.33;2.83;;;;;;;29.08;57.19;100406.66;5048903;28;20128;-68
2021/07/03 04:39:11;;;;;;;18.75;3.20;;;;;;;29.30;56.61;100410.53;5049612;28;20033;-68
2021/07/03 04:41:39;;;;;;;12.23;2.83;;;;;;;29.40;56.13;100401.78;5038582;28;20072;-67
2021/07/03 04:44:07;;;;;;;18.45;3.42;;;;;;;29.55;56.03;100419.75;5049442;28;20120;-68
2021/07/03 04:46:36;;;;;;;19.20;3.05;;;;;;;29.83;55.62;100422.31;5048842;28;20091;-69
2021/07/03 04:49:04;;;;;;;16.80;3.33;;;;;;;30.07;54.88;100433.38;5048727;28;20041;-67
2021/07/03 04:51:32;;;;;;;21.00;4.38;;;;;;;30.30;54.32;100437.19;5049016;28;20041;-68
2021/07/03 04:54:00;;;;;;;14.88;3.38;;;;;;;30.52;53.68;100442.88;5051599;28;20124;-67
2021/07/03 04:56:27;;;;;;;16.90;3.38;;;;;;;30.84;52.99;100446.88;5053637;28;20538;-68
2021/07/03 04:58:55;;;;;;;15.07;3.17;;;;;;;30.92;52.90;100445.44;5053414;28;20116;-68
2021/07/03 05:01:24;;;;;;;15.68;3.28;;;;;;;31.12;52.48;100447.53;5053035;28;20405;-69
2021/07/03 05:03:53;;;;;;;20.27;3.72;;;;;;;31.25;52.01;100448.38;5052761;28;20051;-67
2021/07/03 05:06:20;;;;;;;23.98;3.70;;;;;;;31.50;51.85;100451.00;5051884;28;20041;-67
2021/07/03 05:08:48;;;;;;;17.77;4.30;;;;;;;31.73;51.46;100454.72;5053392;28;20077;-68
2021/07/03 05:11:16;;;;;;;16.63;3.40;;;;;;;31.87;50.84;100467.28;5053293;28;20124;-68
2021/07/03 05:13:43;;;;;;;19.60;3.45;;;;;;;32.17;50.11;100470.38;5051311;28;20041;-69
2021/07/03 05:16:11;;;;;;;14.43;3.13;;;;;;;32.31;49.82;100474.75;5050720;28;20041;-68
2021/07/03 05:18:38;;;;;;;15.93;3.30;;;;;;;32.53;49.23;100472.06;5050329;28;20041;-68
2021/07/03 05:21:07;;;;;;;15.63;3.60;;;;;;;32.60;49.18;100477.91;5048295;28;20521;-69
2021/07/03 05:23:35;;;;;;;13.60;3.10;;;;;;;32.43;48.94;100477.38;5046928;28;20131;-68
2021/07/03 05:26:02;;;;;;;15.57;3.95;;;;;;;32.41;48.81;100484.84;5049558;28;20041;-69
2021/07/03 05:28:30;;;;;;;18.80;3.58;;;;;;;32.52;48.66;100478.50;5052574;28;20041;-69
2021/07/03 05:30:58;;;;;;;18.98;3.53;;;;;;;32.14;49.33;100478.84;5052058;28;20111;-67
2021/07/03 05:33:25;;;;;;;18.05;3.22;;;;;;;32.01;49.85;100481.63;5053123;28;20494;-68
2021/07/03 05:35:52;;;;;;;17.70;3.40;;;;;;;32.52;48.89;100475.78;5052264;28;20033;-68
2021/07/03 05:38:22;;;;;;;14.32;3.58;;;;;;;32.97;48.27;100475.78;5050460;28;20041;-68
2021/07/03 05:40:49;;;;;;;14.35;2.72;;;;;;;33.32;47.25;100475.63;5042714;28;20049;-69
2021/07/03 05:43:17;;;;;;;16.25;3.33;;;;;;;33.70;46.64;100478.72;5040477;28;20135;-69
2021/07/03 05:45:45;;;;;;;13.43;3.15;;;;;;;33.92;45.88;100459.50;5040520;28;20049;-68
2021/07/03 05:48:13;;;;;;;12.77;2.72;;;;;;;34.14;45.25;100465.81;5040052;28;20140;-67
2021/07/03 05:50:40;;;;;;;14.13;3.30;;;;;;;34.52;44.50;100476.19;5038813;28;20426;-68
2021/07/03 05:53:08;;;;;;;12.52;2.60;;;;;;;34.70;44.03;100477.28;5039606;28;20048;-69
2021/07/03 05:55:37;;;;;;;16.95;3.17;;;;;;;34.85;43.43;100475.97;5038553;28;20052;-68
2021/07/03 05:58:04;;;;;;;15.00;2.85;;;;;;;35.00;43.12;100479.16;5038872;28;20045;-68
2021/07/03 06:00:33;;;;;;;15.70;3.55;;;;;;;35.21;42.78;100479.97;5045386;28;20571;-68
2021/07/03 06:03:00;;;;;;;15.15;3.30;;;;;;;35.31;42.06;100471.78;5042483;28;20116;-68
2021/07/03 06:05:28;;;;;;;15.40;2.88;;;;;;;35.33;41.99;100469.75;5044198;28;20439;-67
2021/07/03 06:07:55;;;;;;;17.42;2.90;;;;;;;35.47;41.67;100478.44;5043739;28;20136;-68
2021/07/03 06:10:23;;;;;;;10.35;2.40;;;;;;;35.51;41.34;100476.28;5044118;28;20049;-69
2021/07/03 06:12:52;;;;;;;14.73;2.53;;;;;;;35.39;41.04;100474.66;5046758;28;20453;-68
2021/07/03 06:15:19;;;;;;;12.40;2.65;;;;;;;35.32;41.00;100468.00;5051845;28;20051;-68
2021/07/03 06:17:47;;;;;;;12.68;3.10;;;;;;;35.48;40.66;100465.56;5051523;28;20494;-66
2021/07/03 06:20:15;;;;;;;11.50;2.97;;;;;;;35.79;40.13;100458.94;5050776;28;20037;-66
2021/07/03 06:22:43;;;;;;;12.00;2.10;;;;;;;35.88;39.62;100458.09;5049746;28;20037;-66
2021/07/03 06:25:11;;;;;;;14.07;2.30;;;;;;;35.94;38.98;100459.38;5050987;28;20041;-70
2021/07/03 06:27:40;;;;;;;17.85;3.28;;;;;;;36.02;38.29;100461.41;5050738;28;20125;-68
2021/07/03 06:30:11;;;;;;;13.32;3.10;;;;;;;36.06;38.13;100465.59;5051528;28;20387;-67
2021/07/03 06:32:38;;;;;;;19.10;3.22;;;;;;;36.17;37.66;100466.31;5051050;28;20056;-68
2021/07/03 06:35:07;;;;;;;11.52;2.40;;;;;;;36.30;37.31;100468.78;5050874;28;20436;-65
2021/07/03 06:37:35;;;;;;;10.88;2.50;;;;;;;36.27;36.88;100467.19;5051322;28;20033;-66
2021/07/03 06:40:02;;;;;;;7.20;2.25;;;;;;;36.17;36.44;100474.56;5051187;28;20045;-68
2021/07/03 06:42:30;;;;;;;11.75;2.25;;;;;;;36.05;36.32;100477.59;5050243;28;20039;-68
2021/07/03 06:44:57;;;;;;;9.60;2.22;;;;;;;36.03;36.28;100476.88;5049943;28;20051;-68
2021/07/03 06:47:26;;;;;;;8.90;2.35;;;;;;;36.12;35.88;100473.25;5049660;28;20067;-69
2021/07/03 06:49:54;;;;;;;12.35;2.80;;;;;;;36.06;35.75;100477.44;5051447;28;20041;-68
2021/07/03 06:52:22;;;;;;;8.75;1.95;;;;;;;36.19;35.58;100475.28;5050456;28;20047;-69
2021/07/03 06:54:50;;;;;;;16.25;2.97;;;;;;;36.33;34.95;100471.22;5050151;28;20080;-68
2021/07/03 06:57:17;;;;;;;15.00;2.60;;;;;;;36.31;34.86;100490.59;5050732;28;20041;-68
2021/07/03 06:59:45;;;;;;;12.85;2.72;;;;;;;36.26;34.81;100494.81;5050640;28;20120;-68
2021/07/03 07:02:12;;;;;;;10.32;1.98;;;;;;;36.29;34.95;100505.53;5050765;28;20051;-67
2021/07/03 07:04:41;;;;;;;10.48;1.98;;;;;;;36.25;35.03;100512.31;5048644;28;20064;-68
2021/07/03 07:07:08;;;;;;;6.93;2.00;;;;;;;36.29;34.91;100506.41;5049911;28;20037;-69
2021/07/03 07:09:36;;;;;;;8.57;2.60;;;;;;;36.43;34.60;100507.78;5049443;28;20068;-69
2021/07/03 07:12:04;;;;;;;11.82;2.30;;;;;;;36.56;34.33;100518.50;5045430;28;20043;-67
2021/07/03 07:14:32;;;;;;;9.77;2.20;;;;;;;36.68;33.50;100518.22;5045836;28;20538;-68
2021/07/03 07:16:59;;;;;;;9.65;2.35;;;;;;;36.73;33.04;100517.75;5050013;28;20103;-67
2021/07/03 07:19:26;;;;;;;10.98;2.05;;;;;;;36.75;32.85;100518.47;5049050;28;20116;-67
2021/07/03 07:21:56;;;;;;;9.13;2.85;;;;;;;36.64;32.94;100519.50;5048611;28;20398;-67
2021/07/03 07:24:23;;;;;;;8.68;2.30;;;;;;;36.52;32.56;100520.69;5051095;28;20554;-67
2021/07/03 07:26:51;;;;;;;6.78;2.20;;;;;;;36.50;32.55;100524.56;5049929;28;20049;-68
2021/07/03 07:29:18;;;;;;;10.60;2.88;;;;;;;36.55;32.59;100523.13;5050581;28;20047;-68
2021/07/03 07:31:47;;;;;;;11.15;2.63;;;;;;;36.58;32.64;100528.34;5048298;28;20070;-68
2021/07/03 07:34:15;;;;;;;7.57;2.10;;;;;;;36.60;32.42;100526.31;5045112;28;20074;-68
2021/07/03 07:36:42;;;;;;;10.95;2.55;;;;;;;36.80;32.29;100518.88;5046410;28;20517;-68
2021/07/03 07:39:11;;;;;;;11.20;2.33;;;;;;;36.93;32.14;100524.91;5050573;28;20127;-69
2021/07/03 07:41:39;;;;;;;9.25;2.83;;;;;;;36.93;32.06;100521.28;5048656;28;20055;-68
2021/07/03 07:44:06;;;;;;;7.75;2.22;;;;;;;37.04;31.84;100523.84;5048402;28;20064;-69
2021/07/03 07:46:34;;;;;;;7.68;2.35;;;;;;;37.15;31.57;100520.06;5049631;28;20310;-68
2021/07/03 07:49:01;;;;;;;11.30;2.58;;;;;;;37.25;31.58;100521.75;5048393;28;20043;-67
2021/07/03 07:51:29;;;;;;;9.40;2.20;;;;;;;37.25;31.30;100521.75;5044810;28;20029;-67
2021/07/03 07:53:56;;;;;;;7.05;2.08;;;;;;;37.15;31.67;100520.94;5042049;28;20506;-69
2021/07/03 07:56:25;;;;;;;7.95;1.95;;;;;;;37.23;31.51;100529.28;5031537;28;20048;-68
2021/07/03 07:58:52;;;;;;;10.45;2.35;;;;;;;37.38;31.51;100526.88;5043690;28;20037;-68
2021/07/03 08:01:20;;;;;;;8.50;2.20;;;;;;;37.46;31.49;100525.09;5048699;28;20047;-68
2021/07/03 08:03:47;;;;;;;7.22;2.53;;;;;;;37.47;31.07;100525.97;5050214;28;20045;-69
2021/07/03 08:06:15;;;;;;;11.82;2.10;;;;;;;37.36;30.97;100526.16;5046812;28;20041;-69
2021/07/03 08:08:42;;;;;;;9.00;2.13;;;;;;;37.48;30.58;100523.03;5048996;28;20049;-68
2021/07/03 08:11:09;;;;;;;7.90;2.00;;;;;;;37.50;30.48;100509.09;5049633;28;20048;-68
2021/07/03 08:13:38;;;;;;;8.55;1.65;;;;;;;37.51;30.19;100525.50;5047015;28;20053;-68
2021/07/03 08:16:06;;;;;;;7.53;1.52;;;;;;;37.57;30.23;100520.38;5045891;28;20390;-69
2021/07/03 08:18:34;;;;;;;7.28;2.00;;;;;;;37.56;30.14;100519.50;5047300;28;20037;-68
2021/07/03 08:21:01;;;;;;;8.05;1.75;;;;;;;37.50;30.13;100512.72;5049858;28;20041;-67
2021/07/03 08:23:28;;;;;;;8.98;1.98;;;;;;;37.54;30.02;100523.47;5048946;28;20095;-68
2021/07/03 08:25:56;;;;;;;8.13;1.92;;;;;;;37.61;29.84;100525.47;5049732;28;20128;-68
2021/07/03 08:28:23;;;;;;;9.23;1.80;;;;;;;37.70;29.58;100521.75;5052855;28;20111;-68
2021/07/03 08:30:52;;;;;;;6.55;1.98;;;;;;;37.79;29.51;100528.22;5053151;28;20043;-68
2021/07/03 08:33:20;;;;;;;6.05;1.88;;;;;;;37.82;29.18;100530.66;5053790;28;20045;-69
2021/07/03 08:35:47;;;;;;;10.10;2.00;;;;;;;37.82;28.99;100537.03;5052310;28;20399;-69
2021/07/03 08:38:16;;;;;;;7.35;1.80;;;;;;;37.81;28.70;100538.06;5051095;28;20086;-69
2021/07/03 08:40:44;;;;;;;11.27;2.70;;;;;;;37.80;28.57;100527.22;5053130;28;20070;-68
2021/07/03 08:43:11;;;;;;;9.35;1.85;;;;;;;37.66;29.41;100534.13;5053340;28;20036;-68
2021/07/03 08:45:39;;;;;;;11.32;2.05;;;;;;;37.60;29.77;100543.03;5052811;28;20078;-68
2021/07/03 08:48:07;;;;;;;8.10;2.08;;;;;;;37.67;29.02;100552.41;5053547;28;20106;-68
2021/07/03 08:50:35;;;;;;;6.53;2.00;;;;;;;37.66;29.48;100530.50;5051311;28;20142;-68
2021/07/03 08:53:07;;;;;;;7.38;1.65;;;;;;;37.72;29.40;100541.78;5051555;28;20509;-69
2021/07/03 08:55:35;;;;;;;9.18;2.20;;;;;;;37.93;28.90;100532.34;5052541;28;20056;-68
2021/07/03 08:58:05;;;;;;;7.28;2.30;;;;;;;38.03;28.79;100544.16;5053099;28;20486;-68
2021/07/03 09:00:35;;;;;;;12.20;2.00;;;;;;;37.87;28.55;100537.47;5052523;28;20557;-67
2021/07/03 09:03:13;;;;;;;5.93;1.80;;;;;;;37.92;28.42;100555.41;5053643;28;20040;-68
2021/07/03 09:05:41;;;;;;;10.77;2.20;;;;;;;37.79;28.65;100550.28;5051385;28;20080;-68
2021/07/03 09:08:11;;;;;;;6.47;1.80;;;;;;;37.57;29.31;100553.44;5050895;28;20041;-68
2021/07/03 09:10:40;;;;;;;10.13;1.70;;;;;;;37.58;29.06;100549.72;5049809;28;20162;-69
2021/07/03 09:13:09;;;;;;;12.52;2.75;;;;;;;37.44;29.12;100560.19;5048147;28;20068;-67
2021/07/03 09:15:38;;;;;;;6.18;1.67;;;;;;;37.50;29.31;100558.72;5048798;28;20056;-69
2021/07/03 09:18:07;;;;;;;6.60;1.70;;;;;;;37.70;28.97;100565.88;5052702;28;20033;-68
2021/07/03 09:20:40;;;;;;;7.47;1.70;;;;;;;37.73;28.50;100562.81;5049749;28;20112;-67
2021/07/03 09:23:12;;;;;;;9.67;2.23;;;;;;;37.79;29.54;100561.31;5046870;28;20135;-69
2021/07/03 09:25:41;;;;;;;8.98;2.38;;;;;;;37.79;29.96;100562.19;5048056;28;20443;-67
2021/07/03 09:28:15;;;;;;;9.90;1.95;;;;;;;37.80;30.35;100571.31;5047984;28;20107;-68
2021/07/03 09:30:44;;;;;;;6.95;1.70;;;;;;;37.72;30.00;100560.19;5046814;28;20036;-68
2021/07/03 09:33:11;;;;;;;9.65;1.92;;;;;;;37.72;29.94;100557.44;5046461;28;20044;-67
2021/07/03 09:35:40;;;;;;;7.97;2.28;;;;;;;37.65;30.15;100557.19;5047149;28;20045;-68
2021/07/03 09:38:10;;;;;;;7.32;2.50;;;;;;;37.49;30.69;100560.59;5045950;28;20037;-68
2021/07/03 09:40:39;;;;;;;7.25;2.55;;;;;;;37.45;30.89;100552.81;5047611;28;20049;-68
2021/07/03 09:43:11;;;;;;;6.80;2.20;;;;;;;37.63;30.67;100555.59;5046167;28;20029;-67
2021/07/03 09:45:40;;;;;;;9.77;2.20;;;;;;;37.68;30.91;100562.38;5046549;28;20055;-68
2021/07/03 09:48:10;;;;;;;7.20;1.80;;;;;;;37.74;30.85;100558.16;5045849;28;20052;-67
2021/07/03 09:50:39;;;;;;;8.45;2.35;;;;;;;37.77;30.99;100546.81;5046187;28;20167;-68
2021/07/03 09:53:09;;;;;;;8.45;2.03;;;;;;;37.85;30.91;100560.69;5048195;28;20068;-68
2021/07/03 09:55:38;;;;;;;9.45;2.20;;;;;;;37.82;31.86;100553.59;5046700;28;20044;-68
2021/07/03 09:58:08;;;;;;;10.68;2.05;;;;;;;37.77;31.45;100528.38;5046016;28;20045;-67
2021/07/03 10:00:36;;;;;;;12.68;2.60;;;;;;;37.59;31.80;100545.94;5047309;28;20045;-68
2021/07/03 10:03:07;;;;;;;9.88;2.10;;;;;;;37.71;32.39;100555.72;5046492;28;20032;-68
2021/07/03 10:05:38;;;;;;;10.75;2.08;;;;;;;37.67;32.36;100549.66;5052223;28;20090;-68
2021/07/03 10:08:12;;;;;;;10.05;2.08;;;;;;;37.33;32.74;100546.63;5049417;28;20041;-67
2021/07/03 10:10:50;;;;;;;10.43;2.47;;;;;;;37.22;32.91;100534.97;5040937;28;20041;-68
2021/07/03 10:13:20;;;;;;;8.75;2.00;;;;;;;37.31;33.07;100539.53;5042367;28;20041;-68
2021/07/03 10:15:48;;;;;;;8.80;2.05;;;;;;;37.42;32.52;100533.81;5047570;28;20517;-68
2021/07/03 10:18:21;;;;;;;10.85;2.15;;;;;;;37.31;31.98;100539.53;5047038;28;20053;-68
2021/07/03 10:20:52;;;;;;;6.18;1.95;;;;;;;37.29;31.00;100536.06;5046632;28;20062;-68
2021/07/03 10:23:22;;;;;;;7.22;2.03;;;;;;;37.08;30.46;100519.78;5050099;28;20051;-68
2021/07/03 10:25:52;;;;;;;7.82;2.05;;;;;;;37.07;30.57;100524.44;5051992;28;20051;-68
2021/07/03 10:28:32;;;;;;;8.75;2.00;;;;;;;37.13;30.92;100516.59;5051327;28;20132;-69
2021/07/03 10:31:07;;;;;;;9.10;1.98;;;;;;;37.08;31.39;100520.66;5051393;28;20064;-66
2021/07/03 10:33:45;;;;;;;8.25;2.20;;;;;;;36.92;31.63;100531.44;5051856;28;20041;-68
2021/07/03 10:36:28;;;;;;;8.00;2.08;;;;;;;36.61;33.14;100525.28;5051339;28;20039;-67
2021/07/03 10:38:57;;;;;;;6.90;2.25;;;;;;;36.45;33.21;100510.41;5051933;28;20047;-68
2021/07/03 10:41:27;;;;;;;9.25;2.03;;;;;;;36.32;33.57;100522.59;5051316;28;20406;-69
2021/07/03 10:43:57;;;;;;;7.55;2.17;;;;;;;36.26;33.69;100512.19;5035438;28;20041;-67
2021/07/03 10:46:30;;;;;;;11.05;1.88;;;;;;;36.29;33.52;100514.66;5051154;28;20398;-70
2021/07/03 10:48:58;;;;;;;10.60;3.00;;;;;;;36.33;33.55;100520.72;5050274;28;20041;-69
2021/07/03 10:51:35;;;;;;;8.45;2.00;;;;;;;36.55;33.61;100514.88;5050297;28;20075;-68
2021/07/03 10:54:14;;;;;;;8.77;2.53;;;;;;;36.58;33.66;100513.69;5050420;28;20067;-67
2021/07/03 10:56:48;;;;;;;9.45;2.30;;;;;;;36.69;33.50;100508.06;5050719;28;20048;-68
2021/07/03 10:59:18;;;;;;;8.30;2.08;;;;;;;36.82;33.56;100505.84;5050058;28;20550;-68
2021/07/03 11:01:47;;;;;;;10.27;2.30;;;;;;;36.81;33.20;100506.00;5050775;28;20135;-69
2021/07/03 11:04:18;;;;;;;6.97;2.50;;;;;;;36.89;33.48;100498.69;5050481;28;20052;-69
2021/07/03 11:06:48;;;;;;;10.68;2.60;;;;;;;36.90;33.94;100505.94;5050642;28;20116;-68
2021/07/03 11:09:29;;;;;;;11.15;2.67;;;;;;;37.15;33.46;100506.31;5050889;28;20039;-68
2021/07/03 11:11:57;;;;;;;9.80;3.10;;;;;;;37.27;33.26;100502.31;5050793;28;20052;-68
2021/07/03 11:14:26;;;;;;;8.02;2.53;;;;;;;37.31;33.18;100506.47;5051026;28;20414;-68
2021/07/03 11:16:57;;;;;;;5.78;2.65;;;;;;;37.62;33.14;100502.38;5050704;28;20371;-69
2021/07/03 11:19:27;;;;;;;10.13;2.97;;;;;;;37.87;32.59;100501.63;5050735;28;20116;-68
2021/07/03 11:22:07;;;;;;;11.40;2.85;;;;;;;38.02;32.76;100503.78;5050531;28;20041;-68
2021/07/03 11:24:48;;;;;;;9.02;2.45;;;;;;;38.17;32.57;100502.22;5050316;28;20049;-68
2021/07/03 11:27:26;;;;;;;8.98;2.55;;;;;;;38.21;32.49;100504.50;5050468;28;20187;-69
2021/07/03 11:29:54;;;;;;;12.90;2.53;;;;;;;38.53;31.94;100503.91;5050507;28;20136;-68
2021/07/03 11:32:21;;;;;;;8.85;2.40;;;;;;;38.78;30.87;100504.06;5049999;28;20052;-68